Elberon Park, New Jersey
Current Conditions -  °F | °C
As of 12:15 AM on Saturday 25 Oct 2014 (Local Time) from KBLM Reporting Station
Clear Clear  
Wind Chill: 52°   Ceiling: Unl
Heat Index: 52°   Visibility: 10mi
Dew Point: 39°   Wind: 6mph
Humidity: 62%   Direction: 310°NW
Pressure: 29.85"   Gusts: NA
Location:  40.2647°N, 74.022°W
Report Text: KBLM 250415Z AUTO 31005KT 10SM CLR 11/04 A2985 RMK AO1
Loading
Personal Weather Stations






























Interactive Weather Map
Tropical Storm Tracking
New forecast layout! Learn more

10-Day Weather Forecast

Advertisements
Track Severe Weather on mobile